Time;durP1;ratioP1;P1;durP2;ratioP2;P2;SDS_P1;SDS_P2;PMS_P1;PMS_P2;Temp;Humidity;BMP_temperature;BMP_pressure;BME280_temperature;BME280_humidity;BME280_pressure;Samples;Min_cycle;Max_cycle;Signal;HPM_P1;HPM_P2
2021/04/08 00:01:35;;;;;;;5.57;1.70;;;3.60;59.90;;;;;;5087272;28;20496;-64
2021/04/08 00:04:00;;;;;;;4.55;1.60;;;3.70;59.30;;;;;;5087069;28;20523;-64
2021/04/08 00:06:28;;;;;;;5.30;1.88;;;3.60;59.20;;;;;;5087456;28;20028;-64
2021/04/08 00:08:56;;;;;;;3.90;1.50;;;3.70;59.20;;;;;;5086338;28;20037;-64
2021/04/08 00:11:25;;;;;;;3.83;1.73;;;3.60;59.20;;;;;;5085463;28;20111;-64
2021/04/08 00:13:51;;;;;;;4.35;1.58;;;3.60;59.10;;;;;;5087492;28;20504;-65
2021/04/08 00:16:16;;;;;;;3.45;1.50;;;3.70;59.10;;;;;;5087404;28;20092;-64
2021/04/08 00:18:44;;;;;;;6.25;1.75;;;3.70;59.20;;;;;;5087180;28;20119;-65
2021/04/08 00:21:12;;;;;;;4.72;1.55;;;3.70;59.10;;;;;;5088830;28;20146;-63
2021/04/08 00:23:42;;;;;;;2.50;1.50;;;3.70;59.10;;;;;;5086473;28;20052;-65
2021/04/08 00:26:13;;;;;;;4.35;1.73;;;3.70;59.10;;;;;;5086669;28;20028;-64
2021/04/08 00:28:43;;;;;;;5.35;2.00;;;3.70;58.90;;;;;;5085905;28;20043;-64
2021/04/08 00:31:15;;;;;;;4.63;1.90;;;3.70;58.90;;;;;;5086528;28;20093;-64
2021/04/08 00:33:43;;;;;;;2.90;1.73;;;3.70;58.90;;;;;;5087615;28;20032;-64
2021/04/08 00:36:09;;;;;;;7.15;1.73;;;3.70;59.00;;;;;;5087240;28;20067;-65
2021/04/08 00:38:39;;;;;;;4.57;1.90;;;3.70;58.90;;;;;;5087247;28;20056;-64
2021/04/08 00:41:08;;;;;;;4.60;1.33;;;3.70;59.60;;;;;;5085614;28;20044;-64
2021/04/08 00:43:41;;;;;;;3.35;1.70;;;3.70;59.00;;;;;;5086321;28;20024;-64
2021/04/08 00:46:08;;;;;;;5.20;1.88;;;3.80;58.90;;;;;;5087000;28;20055;-63
2021/04/08 00:48:38;;;;;;;2.78;1.63;;;3.80;58.90;;;;;;5079548;28;20521;-64
2021/04/08 00:51:09;;;;;;;6.88;1.95;;;3.80;58.80;;;;;;5087569;28;20028;-64
2021/04/08 00:53:39;;;;;;;3.90;2.30;;;3.70;58.70;;;;;;5085493;28;20392;-64
2021/04/08 00:56:07;;;;;;;5.20;1.60;;;3.80;58.70;;;;;;5079520;28;20060;-64
2021/04/08 00:58:36;;;;;;;5.10;1.58;;;3.80;58.70;;;;;;5084296;28;20107;-64
2021/04/08 01:01:07;;;;;;;4.88;1.90;;;3.80;58.70;;;;;;5082689;28;20016;-64
2021/04/08 01:03:36;;;;;;;4.50;1.90;;;3.80;58.80;;;;;;5082530;28;20151;-64
2021/04/08 01:06:05;;;;;;;4.55;1.73;;;3.70;58.70;;;;;;5086762;28;20520;-64
2021/04/08 01:08:35;;;;;;;4.35;1.98;;;3.80;58.70;;;;;;5085742;28;20032;-64
2021/04/08 01:11:05;;;;;;;2.88;1.85;;;3.80;58.70;;;;;;5075020;28;20150;-64
2021/04/08 01:13:36;;;;;;;2.95;1.85;;;3.80;58.60;;;;;;5087177;28;20124;-65
2021/04/08 01:16:11;;;;;;;4.90;2.00;;;3.80;58.50;;;;;;5086640;28;20043;-64
2021/04/08 01:18:50;;;;;;;3.08;1.63;;;3.80;58.60;;;;;;5087456;28;20020;-64
2021/04/08 01:21:38;;;;;;;3.97;1.80;;;3.80;58.70;;;;;;5087293;28;20032;-64
2021/04/08 01:24:21;;;;;;;3.45;1.75;;;3.70;58.50;;;;;;5084417;28;20024;-64
2021/04/08 01:27:13;;;;;;;5.53;1.70;;;3.70;58.50;;;;;;5086320;28;20400;-64
2021/04/08 01:29:47;;;;;;;3.63;1.58;;;3.80;58.60;;;;;;5086327;28;20016;-65
2021/04/08 01:32:14;;;;;;;3.92;1.90;;;3.70;58.60;;;;;;5084936;28;20024;-64
2021/04/08 01:34:45;;;;;;;3.00;1.70;;;3.80;58.60;;;;;;5086602;28;20094;-64
2021/04/08 01:37:18;;;;;;;3.30;1.98;;;3.70;58.50;;;;;;5078810;28;20500;-64
2021/04/08 01:39:50;;;;;;;5.85;1.70;;;3.70;58.60;;;;;;5085436;28;20126;-65
2021/04/08 01:42:20;;;;;;;3.50;2.10;;;3.80;58.60;;;;;;5087353;28;20055;-64
2021/04/08 01:44:49;;;;;;;3.10;2.00;;;3.70;58.60;;;;;;5086928;28;20036;-64
2021/04/08 01:47:18;;;;;;;6.80;2.15;;;3.70;58.70;;;;;;5085916;28;20036;-64
2021/04/08 01:49:48;;;;;;;3.28;1.80;;;3.70;58.70;;;;;;5087126;28;20059;-64
2021/04/08 01:52:15;;;;;;;4.32;2.10;;;3.70;58.60;;;;;;5085821;28;20032;-64
2021/04/08 01:54:48;;;;;;;5.25;1.83;;;3.60;58.50;;;;;;5079927;28;20135;-66
2021/04/08 01:57:16;;;;;;;4.72;1.65;;;3.70;58.60;;;;;;5084397;28;20065;-64
2021/04/08 01:59:45;;;;;;;4.75;1.75;;;3.70;58.50;;;;;;5084947;28;20040;-64
2021/04/08 02:02:13;;;;;;;3.72;1.80;;;3.70;58.50;;;;;;5086176;28;20024;-63
2021/04/08 02:04:47;;;;;;;4.75;1.80;;;3.70;58.50;;;;;;5086416;28;20039;-65
2021/04/08 02:07:13;;;;;;;4.50;1.90;;;3.70;58.50;;;;;;5084934;28;20042;-64
2021/04/08 02:09:47;;;;;;;5.35;2.10;;;3.70;58.50;;;;;;5084968;28;20046;-64
2021/04/08 02:12:18;;;;;;;3.22;1.95;;;3.70;58.60;;;;;;5098511;28;20036;-64
2021/04/08 02:14:49;;;;;;;4.97;2.30;;;3.70;58.70;;;;;;5078548;28;20130;-64
2021/04/08 02:17:19;;;;;;;5.65;2.35;;;3.70;58.70;;;;;;5085703;28;20759;-64
2021/04/08 02:19:51;;;;;;;2.58;2.10;;;3.70;58.70;;;;;;5085007;28;20047;-64
2021/04/08 02:22:22;;;;;;;3.40;2.10;;;3.70;58.70;;;;;;5080649;28;20082;-64
2021/04/08 02:24:48;;;;;;;5.13;2.80;;;3.70;58.70;;;;;;5085529;28;20474;-64
2021/04/08 02:27:18;;;;;;;6.32;2.85;;;3.70;58.90;;;;;;5083564;28;20036;-64
2021/04/08 02:29:47;;;;;;;7.38;2.92;;;3.60;59.00;;;;;;5084004;28;20066;-64
2021/04/08 02:32:17;;;;;;;4.43;2.33;;;3.60;59.10;;;;;;5084501;28;20036;-64
2021/04/08 02:34:46;;;;;;;8.13;2.33;;;3.60;59.10;;;;;;5077881;28;20503;-65
2021/04/08 02:37:14;;;;;;;5.40;2.00;;;3.60;59.00;;;;;;5085717;28;20089;-64
2021/04/08 02:39:42;;;;;;;7.35;1.65;;;3.60;59.00;;;;;;5083409;28;20032;-64
2021/04/08 02:42:07;;;;;;;4.97;2.00;;;3.60;59.10;;;;;;5085442;28;20040;-64
2021/04/08 02:44:38;;;;;;;5.55;2.28;;;3.60;59.10;;;;;;5084172;28;20044;-65
2021/04/08 02:47:03;;;;;;;4.63;2.50;;;3.60;59.40;;;;;;5086695;28;20750;-64
2021/04/08 02:49:34;;;;;;;6.60;2.25;;;3.60;59.70;;;;;;5083702;28;20103;-64
2021/04/08 02:52:05;;;;;;;6.65;2.20;;;3.60;60.40;;;;;;5091019;28;20543;-64
2021/04/08 02:54:41;;;;;;;5.32;2.25;;;3.50;60.80;;;;;;5089051;28;20082;-64
2021/04/08 02:57:16;;;;;;;4.05;2.22;;;3.50;61.10;;;;;;5086242;28;20120;-65
2021/04/08 02:59:47;;;;;;;5.15;2.22;;;3.40;61.40;;;;;;5086577;28;20036;-64
2021/04/08 03:02:17;;;;;;;3.78;2.30;;;3.40;61.50;;;;;;5089035;28;20035;-64
2021/04/08 03:04:52;;;;;;;4.05;2.50;;;3.30;62.20;;;;;;5089722;28;20055;-64
2021/04/08 03:07:24;;;;;;;4.90;2.78;;;3.30;63.20;;;;;;5088944;28;20044;-64
2021/04/08 03:09:54;;;;;;;5.15;2.70;;;3.20;63.40;;;;;;5086920;28;20036;-64
2021/04/08 03:12:23;;;;;;;8.80;2.67;;;3.20;64.20;;;;;;5100942;28;20085;-64
2021/04/08 03:14:56;;;;;;;6.40;2.75;;;3.10;64.10;;;;;;5089652;28;20039;-64
2021/04/08 03:17:30;;;;;;;4.13;2.70;;;3.10;64.90;;;;;;5087517;28;20054;-64
2021/04/08 03:20:04;;;;;;;4.55;2.47;;;3.00;65.00;;;;;;5090374;28;20075;-64
2021/04/08 03:22:35;;;;;;;7.90;2.90;;;3.00;65.40;;;;;;5088129;28;20028;-64
2021/04/08 03:25:05;;;;;;;6.05;2.67;;;3.00;65.60;;;;;;5087511;28;20036;-64
2021/04/08 03:27:36;;;;;;;4.97;2.80;;;2.90;65.50;;;;;;5086190;28;20101;-64
2021/04/08 03:30:09;;;;;;;6.60;2.50;;;2.90;65.70;;;;;;5089347;28;20032;-64
2021/04/08 03:32:39;;;;;;;4.25;2.60;;;2.90;65.40;;;;;;5088350;28;20035;-63
2021/04/08 03:35:17;;;;;;;3.63;2.40;;;2.90;65.70;;;;;;5087321;28;20913;-64
2021/04/08 03:37:48;;;;;;;3.90;2.25;;;2.90;65.90;;;;;;5089241;28;20481;-64
2021/04/08 03:40:14;;;;;;;5.78;2.00;;;2.90;65.30;;;;;;5089772;28;20093;-65
2021/04/08 03:42:40;;;;;;;6.28;2.42;;;3.00;65.30;;;;;;5085926;28;20020;-65
2021/04/08 03:45:09;;;;;;;4.68;2.38;;;2.90;64.90;;;;;;5088630;28;20382;-64
2021/04/08 03:47:45;;;;;;;4.13;2.05;;;3.00;64.70;;;;;;5087664;28;20031;-65
2021/04/08 03:50:17;;;;;;;2.83;1.85;;;3.00;64.40;;;;;;5090088;28;20024;-65
2021/04/08 03:52:49;;;;;;;3.70;2.30;;;3.10;64.30;;;;;;5088323;28;20038;-64
2021/04/08 03:55:19;;;;;;;4.93;2.10;;;3.10;64.10;;;;;;5088686;28;20087;-64
2021/04/08 03:57:51;;;;;;;7.60;2.80;;;3.10;63.70;;;;;;5087963;28;20032;-64
2021/04/08 04:00:20;;;;;;;5.68;2.20;;;3.20;63.70;;;;;;5087846;28;20028;-63
2021/04/08 04:02:46;;;;;;;6.22;2.10;;;3.20;63.30;;;;;;5086515;28;20060;-64
2021/04/08 04:05:15;;;;;;;5.45;2.60;;;3.20;63.30;;;;;;5088095;28;20428;-64
2021/04/08 04:07:52;;;;;;;5.85;2.50;;;3.20;63.10;;;;;;5087489;28;20031;-64
2021/04/08 04:10:22;;;;;;;5.80;2.47;;;3.30;63.10;;;;;;5088405;28;20097;-64
2021/04/08 04:12:53;;;;;;;4.22;2.22;;;3.30;63.10;;;;;;5086066;28;20038;-64
2021/04/08 04:15:24;;;;;;;4.88;2.40;;;3.30;63.00;;;;;;5088379;28;20115;-64
2021/04/08 04:17:54;;;;;;;4.07;2.33;;;3.30;63.00;;;;;;5087421;28;20594;-64
2021/04/08 04:20:20;;;;;;;4.30;2.13;;;3.30;63.00;;;;;;5087462;28;20028;-64
2021/04/08 04:22:50;;;;;;;4.20;2.72;;;3.30;63.00;;;;;;5088466;28;20069;-64
2021/04/08 04:25:21;;;;;;;5.70;3.10;;;3.30;63.40;;;;;;5088356;28;20032;-64
2021/04/08 04:27:49;;;;;;;7.57;3.10;;;3.30;63.60;;;;;;5088127;28;20517;-64
2021/04/08 04:30:20;;;;;;;7.25;3.38;;;3.20;63.70;;;;;;5086532;28;20460;-64
2021/04/08 04:32:50;;;;;;;7.13;3.22;;;3.20;63.70;;;;;;5086617;28;20028;-64
2021/04/08 04:35:19;;;;;;;5.60;3.30;;;3.20;63.90;;;;;;5087398;28;20028;-64
2021/04/08 04:37:44;;;;;;;3.15;2.65;;;3.20;63.90;;;;;;5088548;28;20036;-64
2021/04/08 04:40:13;;;;;;;5.57;2.78;;;3.20;63.90;;;;;;5078265;28;20028;-64
2021/04/08 04:42:39;;;;;;;6.60;3.92;;;3.20;64.00;;;;;;5078324;28;21776;-65
2021/04/08 04:45:07;;;;;;;4.40;2.97;;;3.20;63.90;;;;;;5085129;28;20056;-64
2021/04/08 04:47:35;;;;;;;5.78;3.22;;;3.20;64.00;;;;;;5087501;28;20380;-64
2021/04/08 04:50:03;;;;;;;6.57;3.05;;;3.20;63.90;;;;;;5087542;28;20029;-64
2021/04/08 04:52:31;;;;;;;4.97;3.35;;;3.20;63.90;;;;;;5083609;28;20046;-65
2021/04/08 04:54:59;;;;;;;6.03;4.18;;;3.20;63.90;;;;;;5087617;28;20032;-63
2021/04/08 04:57:29;;;;;;;6.50;3.17;;;3.30;64.00;;;;;;5087327;28;20032;-64
2021/04/08 04:59:57;;;;;;;7.28;3.58;;;3.30;64.00;;;;;;5085240;28;20036;-64
2021/04/08 05:02:25;;;;;;;8.38;4.75;;;3.30;63.90;;;;;;5085162;28;20144;-65
2021/04/08 05:04:58;;;;;;;6.90;3.75;;;3.30;64.00;;;;;;5087710;28;20496;-65
2021/04/08 05:07:31;;;;;;;6.32;3.30;;;3.40;64.20;;;;;;5084914;28;20032;-64
2021/04/08 05:10:01;;;;;;;5.68;3.20;;;3.40;64.00;;;;;;5087309;28;20027;-65
2021/04/08 05:12:29;;;;;;;6.72;3.58;;;3.40;64.10;;;;;;5080925;28;20033;-64
2021/04/08 05:14:57;;;;;;;6.57;3.20;;;3.40;64.20;;;;;;5087786;28;20036;-64
2021/04/08 05:17:24;;;;;;;5.43;3.42;;;3.40;64.20;;;;;;5086550;28;20028;-65
2021/04/08 05:19:54;;;;;;;4.80;3.50;;;3.40;64.10;;;;;;5086452;28;20097;-64
2021/04/08 05:22:21;;;;;;;10.00;4.05;;;3.40;64.20;;;;;;5086772;28;20028;-63
2021/04/08 05:24:49;;;;;;;9.00;3.40;;;3.40;64.10;;;;;;5086382;28;20093;-62
2021/04/08 05:27:18;;;;;;;7.28;3.50;;;3.40;64.00;;;;;;5086911;28;20064;-65
2021/04/08 05:29:46;;;;;;;6.25;3.22;;;3.40;64.00;;;;;;5086360;28;20479;-64
2021/04/08 05:32:16;;;;;;;7.88;3.25;;;3.50;64.20;;;;;;5086160;28;20036;-65
2021/04/08 05:34:46;;;;;;;7.80;4.13;;;3.50;64.20;;;;;;5087227;28;20067;-64
2021/04/08 05:37:16;;;;;;;10.15;3.38;;;3.50;64.20;;;;;;5086397;28;20401;-65
2021/04/08 05:39:46;;;;;;;8.27;3.60;;;3.50;64.20;;;;;;5085187;28;20040;-63
2021/04/08 05:42:14;;;;;;;5.35;3.42;;;3.50;64.40;;;;;;5086016;28;20036;-64
2021/04/08 05:44:42;;;;;;;8.45;3.53;;;3.50;64.30;;;;;;5086843;28;20040;-64
2021/04/08 05:47:10;;;;;;;7.57;3.67;;;3.50;64.20;;;;;;5086816;28;20040;-64
2021/04/08 05:49:38;;;;;;;6.07;3.25;;;3.60;64.20;;;;;;5086409;28;20052;-65
2021/04/08 05:52:09;;;;;;;3.78;2.85;;;3.50;64.40;;;;;;5085142;28;20097;-64
2021/04/08 05:54:37;;;;;;;4.93;3.22;;;3.50;64.60;;;;;;5084269;28;20032;-63
2021/04/08 05:57:03;;;;;;;5.57;3.05;;;3.60;64.40;;;;;;5087287;28;20024;-64
2021/04/08 05:59:28;;;;;;;5.50;2.78;;;3.60;64.40;;;;;;5083049;28;20046;-60
2021/04/08 06:01:54;;;;;;;5.25;2.97;;;3.60;64.20;;;;;;5085040;28;20493;-64
2021/04/08 06:04:25;;;;;;;8.45;3.40;;;3.60;64.10;;;;;;5086130;28;20515;-65
2021/04/08 06:06:53;;;;;;;4.90;2.83;;;3.60;64.20;;;;;;5086322;28;20032;-64
2021/04/08 06:09:25;;;;;;;6.10;3.17;;;3.70;64.00;;;;;;5083363;28;20037;-64
2021/04/08 06:11:53;;;;;;;5.43;3.00;;;3.70;64.00;;;;;;5082726;28;20474;-65
2021/04/08 06:14:23;;;;;;;6.70;3.05;;;3.70;63.90;;;;;;5083770;28;20028;-64
2021/04/08 06:16:50;;;;;;;4.82;3.03;;;3.70;63.70;;;;;;5083789;28;20031;-64
2021/04/08 06:19:18;;;;;;;7.82;3.20;;;3.70;63.70;;;;;;5083134;28;20553;-64
2021/04/08 06:21:46;;;;;;;4.95;3.25;;;3.70;63.70;;;;;;5086126;28;20036;-64
2021/04/08 06:24:16;;;;;;;12.32;3.45;;;3.70;63.70;;;;;;5081051;28;20036;-64
2021/04/08 06:26:44;;;;;;;9.90;3.67;;;3.80;63.90;;;;;;5078184;28;20040;-64
2021/04/08 06:29:14;;;;;;;4.63;3.22;;;3.80;63.70;;;;;;5085092;28;20054;-65
2021/04/08 06:31:44;;;;;;;5.38;3.05;;;3.80;63.80;;;;;;5084480;28;20032;-64
2021/04/08 06:34:12;;;;;;;7.03;3.25;;;3.80;63.80;;;;;;5084429;28;20065;-64
2021/04/08 06:36:39;;;;;;;7.32;3.45;;;3.90;63.70;;;;;;5085943;28;20066;-64
2021/04/08 06:39:10;;;;;;;7.43;3.38;;;3.90;63.70;;;;;;5086073;28;20068;-65
2021/04/08 06:41:39;;;;;;;7.43;3.58;;;3.90;63.70;;;;;;5083750;28;20497;-64
2021/04/08 06:44:14;;;;;;;5.95;3.47;;;3.90;63.50;;;;;;5086465;28;20036;-65
2021/04/08 06:46:40;;;;;;;;;;;3.90;63.30;;;;;;5086537;28;20024;-65
2021/04/08 06:49:30;;;;;;;10.43;3.88;;;4.00;63.70;;;;;;5084367;28;19923;-64
2021/04/08 06:51:58;;;;;;;6.28;3.63;;;4.00;63.30;;;;;;5077073;28;20391;-64
2021/04/08 06:54:33;;;;;;;7.60;4.03;;;4.00;63.20;;;;;;5082103;28;20177;-64
2021/04/08 06:57:06;;;;;;;4.85;3.28;;;4.00;63.10;;;;;;5077276;28;20516;-64
2021/04/08 06:59:36;;;;;;;7.25;3.78;;;4.00;63.00;;;;;;5084490;28;20037;-65
2021/04/08 07:02:02;;;;;;;6.10;4.00;;;4.10;63.00;;;;;;5074685;28;20032;-64
2021/04/08 07:04:30;;;;;;;5.55;3.53;;;4.10;62.90;;;;;;5085764;28;20036;-64
2021/04/08 07:06:58;;;;;;;6.13;3.55;;;4.20;63.10;;;;;;5084729;28;20043;-65
2021/04/08 07:09:23;;;;;;;9.25;4.20;;;4.20;63.00;;;;;;5084942;28;20040;-65
2021/04/08 07:11:51;;;;;;;6.22;3.30;;;4.20;62.80;;;;;;5080091;28;20043;-65
2021/04/08 07:14:19;;;;;;;5.85;3.58;;;4.30;62.60;;;;;;5084022;28;20552;-64
2021/04/08 07:16:45;;;;;;;4.15;3.45;;;4.30;62.50;;;;;;5082515;28;20372;-65
2021/04/08 07:19:13;;;;;;;4.82;3.38;;;4.40;62.50;;;;;;5084665;28;20044;-65
2021/04/08 07:21:41;;;;;;;7.72;3.40;;;4.30;62.30;;;;;;5084802;28;20036;-64
2021/04/08 07:24:19;;;;;;;8.55;3.55;;;4.40;62.40;;;;;;5080424;28;20040;-64
2021/04/08 07:27:01;;;;;;;15.10;4.20;;;4.40;62.30;;;;;;5084568;28;20051;-64
2021/04/08 07:29:42;;;;;;;4.90;3.50;;;4.50;62.40;;;;;;5084739;28;20075;-64
2021/04/08 07:32:25;;;;;;;7.78;3.92;;;4.50;62.50;;;;;;5086415;28;20028;-64
2021/04/08 07:35:03;;;;;;;6.10;3.55;;;4.60;62.70;;;;;;5083357;28;20115;-64
2021/04/08 07:37:35;;;;;;;12.30;3.95;;;4.70;62.30;;;;;;5088630;28;20052;-64
2021/04/08 07:40:30;;;;;;;7.65;3.67;;;4.70;61.60;;;;;;5089392;28;20509;-65
2021/04/08 07:42:58;;;;;;;8.07;4.10;;;4.80;60.60;;;;;;5086572;28;20097;-65
2021/04/08 07:45:37;;;;;;;8.25;3.92;;;4.80;61.10;;;;;;5085103;28;20048;-63
2021/04/08 07:48:06;;;;;;;8.27;4.13;;;4.80;61.10;;;;;;5087259;28;20036;-64
2021/04/08 07:50:35;;;;;;;12.45;4.07;;;4.70;61.10;;;;;;5086082;28;20029;-65
2021/04/08 07:53:02;;;;;;;5.93;3.40;;;4.80;61.10;;;;;;5088680;28;20028;-64
2021/04/08 07:55:32;;;;;;;5.35;3.50;;;4.70;60.80;;;;;;5087422;28;20105;-64
2021/04/08 07:58:13;;;;;;;7.00;3.53;;;4.80;60.80;;;;;;5089661;28;20032;-64
2021/04/08 08:00:53;;;;;;;6.80;3.65;;;4.80;60.70;;;;;;5078610;28;20039;-65
2021/04/08 08:03:29;;;;;;;4.45;3.50;;;4.80;60.70;;;;;;5087746;28;20111;-65
2021/04/08 08:06:01;;;;;;;6.63;3.40;;;4.80;60.80;;;;;;5088126;28;20074;-64
2021/04/08 08:08:44;;;;;;;7.78;3.35;;;4.80;60.70;;;;;;5086444;28;20591;-65
2021/04/08 08:11:18;;;;;;;6.97;3.67;;;4.80;60.70;;;;;;5087088;28;20036;-65
2021/04/08 08:14:00;;;;;;;4.75;3.50;;;4.90;60.20;;;;;;5085464;28;20024;-64
2021/04/08 08:16:32;;;;;;;6.03;3.53;;;4.90;60.20;;;;;;5087833;28;20032;-65
2021/04/08 08:19:01;;;;;;;8.48;3.67;;;5.00;60.40;;;;;;5087369;28;20545;-64
2021/04/08 08:21:37;;;;;;;6.65;3.72;;;5.00;60.50;;;;;;5087649;28;20043;-64
2021/04/08 08:24:12;;;;;;;8.40;3.50;;;5.10;60.60;;;;;;5087860;28;20388;-64
2021/04/08 08:26:48;;;;;;;5.43;3.70;;;5.20;60.70;;;;;;5087021;28;20737;-64
2021/04/08 08:29:23;;;;;;;5.28;3.65;;;5.20;60.40;;;;;;5088358;28;20036;-64
2021/04/08 08:31:52;;;;;;;5.55;3.60;;;5.30;60.40;;;;;;5085217;28;20039;-64
2021/04/08 08:34:38;;;;;;;6.90;3.45;;;5.50;60.50;;;;;;5087211;28;20025;-64
2021/04/08 08:37:13;;;;;;;8.00;3.97;;;5.60;59.80;;;;;;5085407;28;20032;-64
2021/04/08 08:39:47;;;;;;;4.20;3.47;;;5.60;59.50;;;;;;5088777;28;20408;-64
2021/04/08 08:42:17;;;;;;;7.05;3.83;;;5.60;59.30;;;;;;5086837;28;20029;-64
2021/04/08 08:44:50;;;;;;;7.15;3.78;;;5.70;59.10;;;;;;5084428;28;20086;-64
2021/04/08 08:47:20;;;;;;;8.48;3.45;;;5.70;58.80;;;;;;5101364;28;20409;-63
2021/04/08 08:49:48;;;;;;;7.82;3.63;;;5.70;58.80;;;;;;5085901;28;20036;-64
2021/04/08 08:52:26;;;;;;;5.95;3.53;;;5.70;58.70;;;;;;5087857;28;20111;-64
2021/04/08 08:54:57;;;;;;;6.75;3.50;;;5.70;58.70;;;;;;5086506;28;20031;-64
2021/04/08 08:57:24;;;;;;;6.15;3.30;;;5.80;58.60;;;;;;5083555;28;20028;-65
2021/04/08 08:59:56;;;;;;;7.35;3.70;;;5.90;58.70;;;;;;5085689;28;20778;-65
2021/04/08 09:02:22;;;;;;;5.97;3.53;;;5.90;58.30;;;;;;5084286;28;20150;-65
2021/04/08 09:04:52;;;;;;;6.90;3.97;;;6.00;58.00;;;;;;5085408;28;20043;-64
2021/04/08 09:07:24;;;;;;;7.78;3.65;;;6.00;57.80;;;;;;5085054;28;20216;-63
2021/04/08 09:09:58;;;;;;;8.15;4.28;;;6.10;58.20;;;;;;5086114;28;20496;-65
2021/04/08 09:12:25;;;;;;;8.50;3.55;;;6.20;58.00;;;;;;5082578;28;20036;-64
2021/04/08 09:14:53;;;;;;;6.60;4.10;;;6.20;57.80;;;;;;5086347;28;20036;-64
2021/04/08 09:17:45;;;;;;;4.28;3.03;;;6.30;57.60;;;;;;5100961;28;20028;-63
2021/04/08 09:20:22;;;;;;;5.40;3.20;;;6.40;56.50;;;;;;5087772;28;20044;-64
2021/04/08 09:23:11;;;;;;;7.68;3.28;;;6.40;56.40;;;;;;5085507;28;20064;-64
2021/04/08 09:25:53;;;;;;;3.90;2.75;;;6.50;54.00;;;;;;5087247;28;20046;-64
2021/04/08 09:28:22;;;;;;;8.20;3.10;;;6.50;54.50;;;;;;5086375;28;20029;-64
2021/04/08 09:33:46;;;;;;;5.72;2.78;;;6.60;54.00;;;;;;5086186;28;20036;-64
2021/04/08 09:36:26;;;;;;;6.57;2.95;;;6.50;53.80;;;;;;5086813;28;20024;-64
2021/04/08 09:39:14;;;;;;;3.92;3.00;;;6.60;54.40;;;;;;5085322;28;20036;-64
2021/04/08 09:41:50;;;;;;;3.83;2.60;;;6.60;52.90;;;;;;5086989;28;20057;-65
2021/04/08 09:44:22;;;;;;;3.45;2.67;;;6.70;53.00;;;;;;5082872;28;20127;-65
2021/04/08 09:46:55;;;;;;;5.40;3.65;;;6.60;52.40;;;;;;5085559;28;20040;-64
2021/04/08 09:49:41;;;;;;;4.45;2.80;;;6.60;52.90;;;;;;5078088;28;20036;-64
2021/04/08 09:52:13;;;;;;;4.80;3.50;;;6.70;53.00;;;;;;5086756;28;20032;-65
2021/04/08 09:54:52;;;;;;;4.93;2.50;;;6.70;53.10;;;;;;5081165;28;20028;-65
2021/04/08 09:57:37;;;;;;;13.15;2.58;;;6.80;52.60;;;;;;5100972;28;20135;-64
2021/04/08 10:00:17;;;;;;;5.60;2.55;;;6.90;53.20;;;;;;5086935;28;20504;-65
2021/04/08 10:03:11;;;;;;;8.50;2.72;;;7.00;53.00;;;;;;5085575;28;20036;-64
2021/04/08 10:05:44;;;;;;;6.05;2.10;;;7.10;51.60;;;;;;5100478;28;20416;-65
2021/04/08 10:08:12;;;;;;;6.30;2.60;;;7.20;51.70;;;;;;5081368;28;20442;-65
2021/04/08 10:10:43;;;;;;;5.50;2.30;;;7.30;50.40;;;;;;5084371;28;20028;-65
2021/04/08 10:13:34;;;;;;;3.40;2.10;;;7.40;49.90;;;;;;5084059;28;20063;-64
2021/04/08 10:16:09;;;;;;;4.22;2.40;;;7.40;48.70;;;;;;5086183;28;20524;-65
2021/04/08 10:18:34;;;;;;;3.10;2.53;;;7.40;50.70;;;;;;5083866;28;20064;-64
2021/04/08 10:21:07;;;;;;;4.53;2.72;;;7.40;49.90;;;;;;5085614;28;20634;-65
2021/04/08 10:23:39;;;;;;;5.68;2.88;;;7.40;50.00;;;;;;5086485;28;20488;-64
2021/04/08 10:26:13;;;;;;;3.30;2.58;;;7.40;50.40;;;;;;5086558;28;20054;-64
2021/04/08 10:28:45;;;;;;;4.75;2.75;;;7.40;49.80;;;;;;5081879;28;20040;-64
2021/04/08 10:31:14;;;;;;;3.75;2.58;;;7.40;49.80;;;;;;5086224;28;20063;-65
2021/04/08 10:33:43;;;;;;;11.65;2.90;;;7.40;50.10;;;;;;5086527;28;20024;-65
2021/04/08 10:36:26;;;;;;;5.10;2.42;;;7.40;50.50;;;;;;5085729;28;20555;-65
2021/04/08 10:39:17;;;;;;;4.15;2.72;;;7.40;50.60;;;;;;5081860;28;20040;-64
2021/04/08 10:42:20;;;;;;;6.18;2.80;;;7.40;48.80;;;;;;5077207;28;20409;-65
2021/04/08 10:44:53;;;;;;;3.58;2.53;;;7.50;48.90;;;;;;5030950;28;20040;-64
2021/04/08 10:47:24;;;;;;;3.58;2.10;;;7.50;50.40;;;;;;5077480;28;20059;-65
2021/04/08 10:50:01;;;;;;;2.70;2.10;;;7.60;50.40;;;;;;5083402;28;20028;-65
2021/04/08 10:52:33;;;;;;;4.43;2.25;;;7.60;50.20;;;;;;5084835;28;20032;-65
2021/04/08 10:55:11;;;;;;;4.10;2.38;;;7.70;50.00;;;;;;5086195;28;20590;-65
2021/04/08 10:57:41;;;;;;;3.15;2.60;;;7.80;49.40;;;;;;5084802;28;20123;-64
2021/04/08 11:00:14;;;;;;;3.63;2.42;;;7.80;48.30;;;;;;5082810;28;20040;-65
2021/04/08 11:02:47;;;;;;;4.78;2.20;;;7.90;48.90;;;;;;5085008;28;20051;-64
2021/04/08 11:05:20;;;;;;;2.92;2.15;;;7.90;48.50;;;;;;5075867;28;20036;-64
2021/04/08 11:07:51;;;;;;;5.85;2.05;;;7.90;49.20;;;;;;5084923;28;20040;-64
2021/04/08 11:10:26;;;;;;;3.85;2.35;;;8.00;48.70;;;;;;5076167;28;20107;-65
2021/04/08 11:12:54;;;;;;;3.47;2.17;;;8.00;47.50;;;;;;5088764;28;20036;-64
2021/04/08 11:15:22;;;;;;;4.57;2.28;;;8.10;48.40;;;;;;5086576;28;20078;-65
2021/04/08 11:17:54;;;;;;;5.97;2.47;;;8.10;48.70;;;;;;5089908;28;20154;-64
2021/04/08 11:20:36;;;;;;;4.75;2.20;;;8.10;48.10;;;;;;5089643;28;20036;-65
2021/04/08 11:23:06;;;;;;;4.60;2.10;;;8.20;45.40;;;;;;5087584;28;20029;-62
2021/04/08 11:25:32;;;;;;;2.47;1.80;;;8.20;46.80;;;;;;5088175;28;20082;-63
2021/04/08 11:28:02;;;;;;;2.92;1.98;;;8.20;47.70;;;;;;5088173;28;20107;-62
2021/04/08 11:30:34;;;;;;;2.42;1.92;;;8.20;47.20;;;;;;5086218;28;20032;-63
2021/04/08 11:33:00;;;;;;;3.78;2.28;;;8.30;47.10;;;;;;5089597;28;20501;-63
2021/04/08 11:35:37;;;;;;;3.35;2.30;;;8.30;47.30;;;;;;5088458;28;20036;-63
2021/04/08 11:38:17;;;;;;;3.90;2.22;;;8.30;47.30;;;;;;5087300;28;20117;-64
2021/04/08 11:41:06;;;;;;;6.05;2.20;;;8.30;47.40;;;;;;5087718;28;20116;-64
2021/04/08 11:43:43;;;;;;;2.70;2.00;;;8.20;47.20;;;;;;5084265;28;20041;-63
2021/04/08 11:46:28;;;;;;;3.20;2.00;;;8.30;48.50;;;;;;5087702;28;20103;-64
2021/04/08 11:48:56;;;;;;;;;;;8.30;47.20;;;;;;5088670;28;20396;-63
2021/04/08 11:51:28;;;;;;;3.25;1.85;;;8.30;47.50;;;;;;5089304;28;19964;-63
2021/04/08 11:53:54;;;;;;;3.85;2.05;;;8.40;47.90;;;;;;5084505;28;20051;-63
2021/04/08 11:56:36;;;;;;;2.60;2.30;;;8.40;48.40;;;;;;5088885;28;20061;-63
2021/04/08 11:59:11;;;;;;;2.60;1.95;;;8.50;47.90;;;;;;5087998;28;20111;-63
2021/04/08 12:01:42;;;;;;;5.07;2.03;;;8.50;47.90;;;;;;5087612;28;20028;-63
2021/04/08 12:04:11;;;;;;;2.63;2.17;;;8.60;47.90;;;;;;5087457;28;20112;-63
2021/04/08 12:06:44;;;;;;;4.40;2.30;;;8.60;47.70;;;;;;5088228;28;20103;-64
2021/04/08 12:09:10;;;;;;;3.28;2.13;;;8.70;44.90;;;;;;5088554;28;20059;-63
2021/04/08 12:12:12;;;;;;;2.20;2.00;;;8.70;44.10;;;;;;5086476;28;20075;-63
2021/04/08 12:15:07;;;;;;;4.82;2.10;;;8.80;42.90;;;;;;5051647;28;20036;-63
2021/04/08 12:17:40;;;;;;;4.15;2.13;;;8.70;43.50;;;;;;5087096;28;20032;-63
2021/04/08 12:20:25;;;;;;;4.18;1.92;;;8.70;44.90;;;;;;5089197;28;20044;-63
2021/04/08 12:22:55;;;;;;;3.05;1.88;;;8.70;45.30;;;;;;5086186;28;20036;-62
2021/04/08 12:25:22;;;;;;;3.10;1.85;;;8.70;46.10;;;;;;5086371;28;20032;-64
2021/04/08 12:28:00;;;;;;;3.70;2.03;;;8.80;46.50;;;;;;5088957;28;20503;-63
2021/04/08 12:30:28;;;;;;;6.22;2.38;;;8.90;45.40;;;;;;5086352;28;20036;-63
2021/04/08 12:32:56;;;;;;;3.80;2.47;;;8.90;45.90;;;;;;5086193;28;20062;-63
2021/04/08 12:35:23;;;;;;;5.28;2.75;;;9.00;45.50;;;;;;5087144;28;20111;-63
2021/04/08 12:37:50;;;;;;;3.80;2.50;;;9.10;45.70;;;;;;5087592;28;20521;-63
2021/04/08 12:40:18;;;;;;;3.03;2.58;;;9.20;44.70;;;;;;5087463;28;20039;-63
2021/04/08 12:42:48;;;;;;;5.32;2.38;;;9.20;45.10;;;;;;5084216;28;20453;-64
2021/04/08 12:45:17;;;;;;;3.90;2.90;;;9.20;45.70;;;;;;5084552;28;20037;-63
2021/04/08 12:47:45;;;;;;;4.13;2.40;;;9.20;44.60;;;;;;5087581;28;20114;-63
2021/04/08 12:50:13;;;;;;;3.22;2.13;;;9.10;45.90;;;;;;5086671;28;20489;-64
2021/04/08 12:52:38;;;;;;;7.38;2.97;;;9.20;45.90;;;;;;5085358;28;20122;-63
2021/04/08 12:55:04;;;;;;;6.65;2.33;;;9.20;45.80;;;;;;5088037;28;20115;-63
2021/04/08 12:57:30;;;;;;;4.82;2.53;;;9.20;46.00;;;;;;5085634;28;20036;-63
2021/04/08 13:00:02;;;;;;;3.60;2.10;;;9.30;46.00;;;;;;5085708;28;20509;-63
2021/04/08 13:02:32;;;;;;;4.35;2.38;;;9.40;45.70;;;;;;5084188;28;20044;-64
2021/04/08 13:05:03;;;;;;;4.97;1.95;;;9.50;44.80;;;;;;5087071;28;20044;-63
2021/04/08 13:07:30;;;;;;;2.67;2.40;;;9.50;45.30;;;;;;5086712;28;20041;-63
2021/04/08 13:09:59;;;;;;;4.07;2.65;;;9.50;45.20;;;;;;5087055;28;20036;-64
2021/04/08 13:12:27;;;;;;;5.28;2.30;;;9.60;44.60;;;;;;5080926;28;20028;-64
2021/04/08 13:14:55;;;;;;;3.80;2.20;;;9.60;44.70;;;;;;5086515;28;20052;-63
2021/04/08 13:17:22;;;;;;;4.90;2.25;;;9.60;44.90;;;;;;5086093;28;20064;-63
2021/04/08 13:19:50;;;;;;;3.75;2.58;;;9.60;44.10;;;;;;5086422;28;20040;-62
2021/04/08 13:22:21;;;;;;;3.65;2.38;;;9.70;43.30;;;;;;5082525;28;20378;-63
2021/04/08 13:24:46;;;;;;;4.50;2.63;;;9.70;44.20;;;;;;5087260;28;20505;-64